sensor_id;sensor_type;location;lat;lon;timestamp;P1;durP1;ratioP1;P2;durP2;ratioP2
966;SDS011;56108;48.730;9.304;2022-12-26T00:00:56;4.50;;;4.20;;
966;SDS011;56108;48.730;9.304;2022-12-26T00:03:10;4.70;;;4.30;;
966;SDS011;56108;48.730;9.304;2022-12-26T00:05:18;4.60;;;4.30;;
966;SDS011;56108;48.730;9.304;2022-12-26T00:07:27;4.63;;;4.22;;
966;SDS011;56108;48.730;9.304;2022-12-26T00:09:34;4.00;;;3.63;;
966;SDS011;56108;48.730;9.304;2022-12-26T00:11:42;4.57;;;4.18;;
966;SDS011;56108;48.730;9.304;2022-12-26T00:13:55;4.70;;;4.30;;
966;SDS011;56108;48.730;9.304;2022-12-26T00:16:05;4.53;;;4.20;;
966;SDS011;56108;48.730;9.304;2022-12-26T00:18:19;4.35;;;3.92;;
966;SDS011;56108;48.730;9.304;2022-12-26T00:20:28;5.32;;;4.82;;
966;SDS011;56108;48.730;9.304;2022-12-26T00:22:36;5.85;;;4.43;;
966;SDS011;56108;48.730;9.304;2022-12-26T00:24:44;4.18;;;3.88;;
966;SDS011;56108;48.730;9.304;2022-12-26T00:26:53;4.57;;;4.18;;
966;SDS011;56108;48.730;9.304;2022-12-26T00:29:05;4.10;;;3.80;;
966;SDS011;56108;48.730;9.304;2022-12-26T00:31:13;4.55;;;4.20;;
966;SDS011;56108;48.730;9.304;2022-12-26T00:33:25;4.30;;;4.00;;
966;SDS011;56108;48.730;9.304;2022-12-26T00:35:33;4.75;;;4.00;;
966;SDS011;56108;48.730;9.304;2022-12-26T00:37:41;3.95;;;3.55;;
966;SDS011;56108;48.730;9.304;2022-12-26T00:39:51;4.32;;;3.90;;
966;SDS011;56108;48.730;9.304;2022-12-26T00:41:59;4.35;;;3.95;;
966;SDS011;56108;48.730;9.304;2022-12-26T00:44:07;4.50;;;4.10;;
966;SDS011;56108;48.730;9.304;2022-12-26T00:46:16;4.60;;;4.20;;
966;SDS011;56108;48.730;9.304;2022-12-26T00:48:27;4.53;;;4.13;;
966;SDS011;56108;48.730;9.304;2022-12-26T00:50:36;4.30;;;4.00;;
966;SDS011;56108;48.730;9.304;2022-12-26T00:52:44;5.25;;;4.75;;
966;SDS011;56108;48.730;9.304;2022-12-26T00:54:54;5.80;;;5.38;;
966;SDS011;56108;48.730;9.304;2022-12-26T00:57:01;5.05;;;4.65;;
966;SDS011;56108;48.730;9.304;2022-12-26T00:59:11;4.65;;;4.25;;
966;SDS011;56108;48.730;9.304;2022-12-26T01:01:20;5.07;;;4.60;;
966;SDS011;56108;48.730;9.304;2022-12-26T01:03:32;5.63;;;4.05;;
966;SDS011;56108;48.730;9.304;2022-12-26T01:05:41;4.80;;;4.40;;
966;SDS011;56108;48.730;9.304;2022-12-26T01:07:51;5.22;;;4.82;;
966;SDS011;56108;48.730;9.304;2022-12-26T01:10:19;4.53;;;3.90;;
966;SDS011;56108;48.730;9.304;2022-12-26T01:12:30;4.45;;;4.05;;
966;SDS011;56108;48.730;9.304;2022-12-26T01:14:38;4.80;;;4.40;;
966;SDS011;56108;48.730;9.304;2022-12-26T01:16:50;4.32;;;3.92;;
966;SDS011;56108;48.730;9.304;2022-12-26T01:19:00;4.95;;;4.55;;
966;SDS011;56108;48.730;9.304;2022-12-26T01:21:09;6.45;;;4.60;;
966;SDS011;56108;48.730;9.304;2022-12-26T01:23:17;5.00;;;4.60;;
966;SDS011;56108;48.730;9.304;2022-12-26T01:25:27;4.43;;;4.03;;
966;SDS011;56108;48.730;9.304;2022-12-26T01:27:35;4.82;;;4.43;;
966;SDS011;56108;48.730;9.304;2022-12-26T01:29:43;4.70;;;4.32;;
966;SDS011;56108;48.730;9.304;2022-12-26T01:31:51;4.53;;;4.13;;
966;SDS011;56108;48.730;9.304;2022-12-26T01:34:02;4.97;;;4.53;;
966;SDS011;56108;48.730;9.304;2022-12-26T01:36:10;4.95;;;4.40;;
966;SDS011;56108;48.730;9.304;2022-12-26T01:38:18;4.38;;;3.97;;
966;SDS011;56108;48.730;9.304;2022-12-26T01:40:26;4.13;;;3.83;;
966;SDS011;56108;48.730;9.304;2022-12-26T01:42:35;4.60;;;4.20;;
966;SDS011;56108;48.730;9.304;2022-12-26T01:44:56;4.50;;;4.20;;
966;SDS011;56108;48.730;9.304;2022-12-26T01:47:11;4.68;;;4.28;;
966;SDS011;56108;48.730;9.304;2022-12-26T01:49:25;4.25;;;3.95;;
966;SDS011;56108;48.730;9.304;2022-12-26T01:51:37;4.95;;;4.55;;
966;SDS011;56108;48.730;9.304;2022-12-26T01:53:53;4.45;;;4.05;;
966;SDS011;56108;48.730;9.304;2022-12-26T01:56:27;5.40;;;3.95;;
966;SDS011;56108;48.730;9.304;2022-12-26T01:58:40;4.60;;;4.20;;
966;SDS011;56108;48.730;9.304;2022-12-26T02:00:53;4.35;;;4.03;;
966;SDS011;56108;48.730;9.304;2022-12-26T02:03:01;4.47;;;4.18;;
966;SDS011;56108;48.730;9.304;2022-12-26T02:05:28;4.32;;;3.97;;
966;SDS011;56108;48.730;9.304;2022-12-26T02:07:43;4.80;;;4.40;;
966;SDS011;56108;48.730;9.304;2022-12-26T02:09:52;4.40;;;4.00;;
966;SDS011;56108;48.730;9.304;2022-12-26T02:12:01;4.22;;;3.92;;
966;SDS011;56108;48.730;9.304;2022-12-26T02:14:35;4.90;;;4.40;;
966;SDS011;56108;48.730;9.304;2022-12-26T02:16:44;4.20;;;3.90;;
966;SDS011;56108;48.730;9.304;2022-12-26T02:18:53;3.63;;;3.33;;
966;SDS011;56108;48.730;9.304;2022-12-26T02:23:49;4.30;;;3.90;;
966;SDS011;56108;48.730;9.304;2022-12-26T02:26:22;4.63;;;4.22;;
966;SDS011;56108;48.730;9.304;2022-12-26T02:28:54;4.80;;;4.40;;
966;SDS011;56108;48.730;9.304;2022-12-26T02:31:40;4.22;;;3.90;;
966;SDS011;56108;48.730;9.304;2022-12-26T02:33:56;4.45;;;3.70;;
966;SDS011;56108;48.730;9.304;2022-12-26T02:36:19;4.15;;;3.75;;
966;SDS011;56108;48.730;9.304;2022-12-26T02:38:39;4.30;;;3.90;;
966;SDS011;56108;48.730;9.304;2022-12-26T02:40:58;4.20;;;3.90;;
966;SDS011;56108;48.730;9.304;2022-12-26T02:43:17;4.03;;;3.70;;
966;SDS011;56108;48.730;9.304;2022-12-26T02:45:35;4.28;;;3.97;;
966;SDS011;56108;48.730;9.304;2022-12-26T02:48:19;4.10;;;3.50;;
966;SDS011;56108;48.730;9.304;2022-12-26T02:50:37;4.10;;;3.80;;
966;SDS011;56108;48.730;9.304;2022-12-26T02:53:18;4.45;;;4.05;;
966;SDS011;56108;48.730;9.304;2022-12-26T02:55:42;4.60;;;4.20;;
966;SDS011;56108;48.730;9.304;2022-12-26T02:58:06;3.60;;;3.40;;
966;SDS011;56108;48.730;9.304;2022-12-26T03:00:37;4.22;;;3.85;;
966;SDS011;56108;48.730;9.304;2022-12-26T03:03:03;4.10;;;3.80;;
966;SDS011;56108;48.730;9.304;2022-12-26T03:05:30;4.82;;;4.43;;
966;SDS011;56108;48.730;9.304;2022-12-26T03:07:53;4.43;;;3.97;;
966;SDS011;56108;48.730;9.304;2022-12-26T03:10:15;3.60;;;3.30;;
966;SDS011;56108;48.730;9.304;2022-12-26T03:12:39;4.10;;;3.80;;
966;SDS011;56108;48.730;9.304;2022-12-26T03:15:04;4.55;;;4.25;;
966;SDS011;56108;48.730;9.304;2022-12-26T03:17:22;4.03;;;3.72;;
966;SDS011;56108;48.730;9.304;2022-12-26T03:19:31;4.53;;;4.22;;
966;SDS011;56108;48.730;9.304;2022-12-26T03:21:44;4.63;;;4.22;;
966;SDS011;56108;48.730;9.304;2022-12-26T03:23:53;5.03;;;4.53;;
966;SDS011;56108;48.730;9.304;2022-12-26T03:26:04;4.75;;;4.35;;
966;SDS011;56108;48.730;9.304;2022-12-26T03:28:28;4.00;;;3.70;;
966;SDS011;56108;48.730;9.304;2022-12-26T03:30:33;4.32;;;4.05;;
966;SDS011;56108;48.730;9.304;2022-12-26T03:32:56;4.18;;;3.88;;
966;SDS011;56108;48.730;9.304;2022-12-26T03:35:07;4.43;;;4.13;;
966;SDS011;56108;48.730;9.304;2022-12-26T03:37:29;6.80;;;4.00;;
966;SDS011;56108;48.730;9.304;2022-12-26T03:39:56;4.65;;;4.20;;
966;SDS011;56108;48.730;9.304;2022-12-26T03:42:32;4.82;;;4.30;;
966;SDS011;56108;48.730;9.304;2022-12-26T03:44:58;4.35;;;4.00;;
966;SDS011;56108;48.730;9.304;2022-12-26T03:47:28;4.38;;;3.97;;
966;SDS011;56108;48.730;9.304;2022-12-26T03:50:00;6.20;;;4.47;;
966;SDS011;56108;48.730;9.304;2022-12-26T03:52:30;4.97;;;3.95;;
966;SDS011;56108;48.730;9.304;2022-12-26T03:55:00;3.95;;;3.60;;
966;SDS011;56108;48.730;9.304;2022-12-26T03:57:24;5.55;;;3.55;;
966;SDS011;56108;48.730;9.304;2022-12-26T03:59:54;4.15;;;3.75;;
966;SDS011;56108;48.730;9.304;2022-12-26T04:02:18;3.50;;;3.30;;
966;SDS011;56108;48.730;9.304;2022-12-26T04:04:49;4.22;;;3.92;;
966;SDS011;56108;48.730;9.304;2022-12-26T04:07:14;4.07;;;3.78;;
966;SDS011;56108;48.730;9.304;2022-12-26T04:09:42;3.50;;;3.30;;
966;SDS011;56108;48.730;9.304;2022-12-26T04:12:08;4.38;;;3.90;;
966;SDS011;56108;48.730;9.304;2022-12-26T04:14:35;3.97;;;3.60;;
966;SDS011;56108;48.730;9.304;2022-12-26T04:17:02;3.60;;;3.30;;
966;SDS011;56108;48.730;9.304;2022-12-26T04:19:35;4.45;;;4.15;;
966;SDS011;56108;48.730;9.304;2022-12-26T04:21:57;3.95;;;3.65;;
966;SDS011;56108;48.730;9.304;2022-12-26T04:24:27;3.90;;;3.60;;
966;SDS011;56108;48.730;9.304;2022-12-26T04:26:57;5.80;;;4.03;;
966;SDS011;56108;48.730;9.304;2022-12-26T04:29:22;4.30;;;3.90;;
966;SDS011;56108;48.730;9.304;2022-12-26T04:31:44;4.72;;;4.32;;
966;SDS011;56108;48.730;9.304;2022-12-26T04:34:11;4.22;;;3.90;;
966;SDS011;56108;48.730;9.304;2022-12-26T04:36:40;3.78;;;3.47;;
966;SDS011;56108;48.730;9.304;2022-12-26T04:39:05;4.32;;;4.00;;
966;SDS011;56108;48.730;9.304;2022-12-26T04:41:29;4.03;;;3.72;;
966;SDS011;56108;48.730;9.304;2022-12-26T04:43:55;6.43;;;3.80;;
966;SDS011;56108;48.730;9.304;2022-12-26T04:46:13;4.60;;;3.40;;
966;SDS011;56108;48.730;9.304;2022-12-26T04:48:25;3.92;;;3.55;;
966;SDS011;56108;48.730;9.304;2022-12-26T04:50:49;3.40;;;3.20;;
966;SDS011;56108;48.730;9.304;2022-12-26T04:52:59;4.13;;;3.53;;
966;SDS011;56108;48.730;9.304;2022-12-26T04:55:07;3.80;;;3.50;;
966;SDS011;56108;48.730;9.304;2022-12-26T04:57:15;3.95;;;3.65;;
966;SDS011;56108;48.730;9.304;2022-12-26T04:59:26;4.03;;;3.67;;
966;SDS011;56108;48.730;9.304;2022-12-26T05:01:34;3.80;;;3.50;;
966;SDS011;56108;48.730;9.304;2022-12-26T05:03:55;4.55;;;4.15;;
966;SDS011;56108;48.730;9.304;2022-12-26T05:06:20;3.40;;;3.10;;
966;SDS011;56108;48.730;9.304;2022-12-26T05:08:41;4.50;;;4.10;;
966;SDS011;56108;48.730;9.304;2022-12-26T05:11:02;4.22;;;3.92;;
966;SDS011;56108;48.730;9.304;2022-12-26T05:13:11;4.32;;;4.03;;
966;SDS011;56108;48.730;9.304;2022-12-26T05:15:21;3.90;;;3.60;;
966;SDS011;56108;48.730;9.304;2022-12-26T05:17:30;4.60;;;4.20;;
966;SDS011;56108;48.730;9.304;2022-12-26T05:19:50;4.60;;;4.20;;
966;SDS011;56108;48.730;9.304;2022-12-26T05:22:11;3.75;;;3.40;;
966;SDS011;56108;48.730;9.304;2022-12-26T05:24:32;4.03;;;3.72;;
966;SDS011;56108;48.730;9.304;2022-12-26T05:26:55;3.75;;;3.45;;
966;SDS011;56108;48.730;9.304;2022-12-26T05:29:30;5.05;;;3.95;;
966;SDS011;56108;48.730;9.304;2022-12-26T05:31:41;4.60;;;3.78;;
966;SDS011;56108;48.730;9.304;2022-12-26T05:33:49;4.18;;;3.65;;
966;SDS011;56108;48.730;9.304;2022-12-26T05:36:10;4.75;;;3.63;;
966;SDS011;56108;48.730;9.304;2022-12-26T05:38:21;4.50;;;4.10;;
966;SDS011;56108;48.730;9.304;2022-12-26T05:40:29;3.95;;;3.60;;
966;SDS011;56108;48.730;9.304;2022-12-26T05:42:37;4.93;;;3.78;;
966;SDS011;56108;48.730;9.304;2022-12-26T05:44:45;3.90;;;3.60;;
966;SDS011;56108;48.730;9.304;2022-12-26T05:46:55;3.75;;;3.45;;
966;SDS011;56108;48.730;9.304;2022-12-26T05:49:04;3.70;;;3.40;;
966;SDS011;56108;48.730;9.304;2022-12-26T05:51:12;3.88;;;3.55;;
966;SDS011;56108;48.730;9.304;2022-12-26T05:53:20;3.75;;;3.45;;
966;SDS011;56108;48.730;9.304;2022-12-26T05:55:28;4.75;;;3.88;;
966;SDS011;56108;48.730;9.304;2022-12-26T05:57:37;4.05;;;3.75;;
966;SDS011;56108;48.730;9.304;2022-12-26T05:59:46;3.63;;;3.42;;
966;SDS011;56108;48.730;9.304;2022-12-26T06:01:57;4.03;;;3.70;;
966;SDS011;56108;48.730;9.304;2022-12-26T06:04:04;4.45;;;4.05;;
966;SDS011;56108;48.730;9.304;2022-12-26T06:06:13;3.88;;;3.55;;
966;SDS011;56108;48.730;9.304;2022-12-26T06:08:22;3.75;;;3.45;;
966;SDS011;56108;48.730;9.304;2022-12-26T06:10:31;4.40;;;4.00;;
966;SDS011;56108;48.730;9.304;2022-12-26T06:12:39;4.03;;;3.72;;
966;SDS011;56108;48.730;9.304;2022-12-26T06:14:47;4.40;;;3.50;;
966;SDS011;56108;48.730;9.304;2022-12-26T06:16:58;3.85;;;3.55;;
966;SDS011;56108;48.730;9.304;2022-12-26T06:19:06;3.35;;;3.15;;
966;SDS011;56108;48.730;9.304;2022-12-26T06:21:15;4.40;;;4.10;;
966;SDS011;56108;48.730;9.304;2022-12-26T06:23:24;3.88;;;3.55;;
966;SDS011;56108;48.730;9.304;2022-12-26T06:25:32;4.10;;;3.80;;
966;SDS011;56108;48.730;9.304;2022-12-26T06:27:41;3.80;;;3.50;;
966;SDS011;56108;48.730;9.304;2022-12-26T06:29:50;4.15;;;3.75;;
966;SDS011;56108;48.730;9.304;2022-12-26T06:32:01;3.88;;;3.58;;
966;SDS011;56108;48.730;9.304;2022-12-26T06:34:11;4.55;;;4.15;;
966;SDS011;56108;48.730;9.304;2022-12-26T06:36:20;3.67;;;3.38;;
966;SDS011;56108;48.730;9.304;2022-12-26T06:38:30;4.00;;;3.70;;
966;SDS011;56108;48.730;9.304;2022-12-26T06:40:38;4.32;;;3.45;;
966;SDS011;56108;48.730;9.304;2022-12-26T06:42:47;4.13;;;3.83;;
966;SDS011;56108;48.730;9.304;2022-12-26T06:44:55;3.80;;;3.53;;
966;SDS011;56108;48.730;9.304;2022-12-26T06:47:06;4.13;;;3.80;;
966;SDS011;56108;48.730;9.304;2022-12-26T06:49:14;4.70;;;4.10;;
966;SDS011;56108;48.730;9.304;2022-12-26T06:51:23;4.03;;;3.72;;
966;SDS011;56108;48.730;9.304;2022-12-26T06:53:33;3.95;;;3.65;;
966;SDS011;56108;48.730;9.304;2022-12-26T06:55:41;4.05;;;3.75;;
966;SDS011;56108;48.730;9.304;2022-12-26T06:57:50;3.88;;;3.58;;
966;SDS011;56108;48.730;9.304;2022-12-26T07:00:01;4.68;;;4.03;;
966;SDS011;56108;48.730;9.304;2022-12-26T07:02:13;3.42;;;3.22;;
966;SDS011;56108;48.730;9.304;2022-12-26T07:04:22;4.20;;;3.90;;
966;SDS011;56108;48.730;9.304;2022-12-26T07:06:31;3.60;;;3.30;;
966;SDS011;56108;48.730;9.304;2022-12-26T07:08:40;4.45;;;4.15;;
966;SDS011;56108;48.730;9.304;2022-12-26T07:10:48;4.00;;;3.70;;
966;SDS011;56108;48.730;9.304;2022-12-26T07:12:56;4.20;;;3.90;;
966;SDS011;56108;48.730;9.304;2022-12-26T07:15:05;5.00;;;4.07;;
966;SDS011;56108;48.730;9.304;2022-12-26T07:17:18;4.15;;;3.80;;
966;SDS011;56108;48.730;9.304;2022-12-26T07:19:27;4.65;;;4.22;;
966;SDS011;56108;48.730;9.304;2022-12-26T07:21:36;4.00;;;3.60;;
966;SDS011;56108;48.730;9.304;2022-12-26T07:23:44;5.00;;;4.50;;
966;SDS011;56108;48.730;9.304;2022-12-26T07:25:52;4.68;;;4.28;;
966;SDS011;56108;48.730;9.304;2022-12-26T07:28:02;4.10;;;3.72;;
966;SDS011;56108;48.730;9.304;2022-12-26T07:30:10;5.10;;;4.60;;
966;SDS011;56108;48.730;9.304;2022-12-26T07:32:21;4.20;;;3.90;;
966;SDS011;56108;48.730;9.304;2022-12-26T07:34:30;4.75;;;3.90;;
966;SDS011;56108;48.730;9.304;2022-12-26T07:36:38;3.95;;;3.58;;
966;SDS011;56108;48.730;9.304;2022-12-26T07:38:46;4.35;;;4.05;;
966;SDS011;56108;48.730;9.304;2022-12-26T07:40:54;4.20;;;3.85;;
966;SDS011;56108;48.730;9.304;2022-12-26T07:43:05;4.25;;;3.85;;
966;SDS011;56108;48.730;9.304;2022-12-26T07:45:11;3.83;;;3.53;;
966;SDS011;56108;48.730;9.304;2022-12-26T07:47:22;4.55;;;4.15;;
966;SDS011;56108;48.730;9.304;2022-12-26T07:49:31;3.90;;;3.42;;
966;SDS011;56108;48.730;9.304;2022-12-26T07:51:41;4.40;;;4.05;;
966;SDS011;56108;48.730;9.304;2022-12-26T07:53:49;4.40;;;4.05;;
966;SDS011;56108;48.730;9.304;2022-12-26T07:55:57;3.83;;;3.53;;
966;SDS011;56108;48.730;9.304;2022-12-26T07:58:05;4.55;;;3.90;;
966;SDS011;56108;48.730;9.304;2022-12-26T08:00:13;4.03;;;3.63;;
966;SDS011;56108;48.730;9.304;2022-12-26T08:02:26;4.30;;;4.00;;
966;SDS011;56108;48.730;9.304;2022-12-26T08:04:34;3.95;;;3.65;;
966;SDS011;56108;48.730;9.304;2022-12-26T08:06:44;4.32;;;4.03;;
966;SDS011;56108;48.730;9.304;2022-12-26T08:08:52;3.83;;;3.42;;
966;SDS011;56108;48.730;9.304;2022-12-26T08:11:00;4.35;;;4.05;;
966;SDS011;56108;48.730;9.304;2022-12-26T08:13:11;4.50;;;4.20;;
966;SDS011;56108;48.730;9.304;2022-12-26T08:15:23;4.45;;;4.15;;
966;SDS011;56108;48.730;9.304;2022-12-26T08:17:34;4.60;;;4.20;;
966;SDS011;56108;48.730;9.304;2022-12-26T08:19:42;4.75;;;4.13;;
966;SDS011;56108;48.730;9.304;2022-12-26T08:21:50;5.80;;;4.60;;
966;SDS011;56108;48.730;9.304;2022-12-26T08:24:01;4.90;;;4.45;;
966;SDS011;56108;48.730;9.304;2022-12-26T08:26:12;5.25;;;4.85;;
966;SDS011;56108;48.730;9.304;2022-12-26T08:28:26;4.95;;;4.30;;
966;SDS011;56108;48.730;9.304;2022-12-26T08:30:34;5.50;;;5.00;;
966;SDS011;56108;48.730;9.304;2022-12-26T08:32:44;5.32;;;4.82;;
966;SDS011;56108;48.730;9.304;2022-12-26T08:34:52;8.07;;;5.50;;
966;SDS011;56108;48.730;9.304;2022-12-26T08:37:00;5.90;;;5.35;;
966;SDS011;56108;48.730;9.304;2022-12-26T08:39:12;4.90;;;4.60;;
966;SDS011;56108;48.730;9.304;2022-12-26T08:41:26;6.05;;;5.20;;
966;SDS011;56108;48.730;9.304;2022-12-26T08:43:40;3.92;;;3.63;;
966;SDS011;56108;48.730;9.304;2022-12-26T08:46:10;5.20;;;4.70;;
966;SDS011;56108;48.730;9.304;2022-12-26T08:48:21;4.75;;;4.28;;
966;SDS011;56108;48.730;9.304;2022-12-26T08:50:34;5.18;;;4.85;;
966;SDS011;56108;48.730;9.304;2022-12-26T08:52:45;5.40;;;5.00;;
966;SDS011;56108;48.730;9.304;2022-12-26T08:54:56;5.55;;;4.60;;
966;SDS011;56108;48.730;9.304;2022-12-26T08:57:04;5.22;;;4.72;;
966;SDS011;56108;48.730;9.304;2022-12-26T08:59:15;5.55;;;5.10;;
966;SDS011;56108;48.730;9.304;2022-12-26T09:01:24;5.18;;;4.68;;
966;SDS011;56108;48.730;9.304;2022-12-26T09:03:37;4.90;;;4.40;;
966;SDS011;56108;48.730;9.304;2022-12-26T09:05:47;4.55;;;4.15;;
966;SDS011;56108;48.730;9.304;2022-12-26T09:07:55;5.47;;;4.97;;
966;SDS011;56108;48.730;9.304;2022-12-26T09:10:04;4.95;;;4.55;;
966;SDS011;56108;48.730;9.304;2022-12-26T09:12:13;5.22;;;4.82;;
966;SDS011;56108;48.730;9.304;2022-12-26T09:14:21;6.88;;;5.30;;
966;SDS011;56108;48.730;9.304;2022-12-26T09:16:32;6.20;;;5.60;;
966;SDS011;56108;48.730;9.304;2022-12-26T09:18:55;6.28;;;5.60;;
966;SDS011;56108;48.730;9.304;2022-12-26T09:21:05;5.80;;;5.35;;
966;SDS011;56108;48.730;9.304;2022-12-26T09:23:17;6.53;;;5.82;;
966;SDS011;56108;48.730;9.304;2022-12-26T09:25:26;7.65;;;6.90;;
966;SDS011;56108;48.730;9.304;2022-12-26T09:27:34;14.20;;;6.47;;
966;SDS011;56108;48.730;9.304;2022-12-26T09:29:44;6.60;;;6.10;;
966;SDS011;56108;48.730;9.304;2022-12-26T09:31:53;7.05;;;6.35;;
966;SDS011;56108;48.730;9.304;2022-12-26T09:34:05;8.68;;;7.40;;
966;SDS011;56108;48.730;9.304;2022-12-26T09:36:16;8.93;;;7.88;;
966;SDS011;56108;48.730;9.304;2022-12-26T09:38:25;9.82;;;8.13;;
966;SDS011;56108;48.730;9.304;2022-12-26T09:40:35;8.35;;;7.50;;
966;SDS011;56108;48.730;9.304;2022-12-26T09:43:01;7.28;;;6.57;;
966;SDS011;56108;48.730;9.304;2022-12-26T09:45:24;8.13;;;7.43;;
966;SDS011;56108;48.730;9.304;2022-12-26T09:47:51;7.45;;;6.75;;
966;SDS011;56108;48.730;9.304;2022-12-26T09:50:15;7.28;;;6.63;;
966;SDS011;56108;48.730;9.304;2022-12-26T09:52:32;9.25;;;6.90;;
966;SDS011;56108;48.730;9.304;2022-12-26T09:54:48;8.38;;;7.68;;
966;SDS011;56108;48.730;9.304;2022-12-26T09:57:02;9.07;;;8.18;;
966;SDS011;56108;48.730;9.304;2022-12-26T09:59:18;10.88;;;7.75;;
966;SDS011;56108;48.730;9.304;2022-12-26T10:01:32;13.20;;;7.60;;
966;SDS011;56108;48.730;9.304;2022-12-26T10:03:43;8.95;;;6.97;;
966;SDS011;56108;48.730;9.304;2022-12-26T10:06:00;9.45;;;6.70;;
966;SDS011;56108;48.730;9.304;2022-12-26T10:08:20;7.55;;;6.85;;
966;SDS011;56108;48.730;9.304;2022-12-26T10:10:35;6.53;;;6.03;;
966;SDS011;56108;48.730;9.304;2022-12-26T10:12:54;9.23;;;7.38;;
966;SDS011;56108;48.730;9.304;2022-12-26T10:15:11;7.03;;;6.35;;
966;SDS011;56108;48.730;9.304;2022-12-26T10:17:34;9.18;;;8.10;;
966;SDS011;56108;48.730;9.304;2022-12-26T10:19:55;13.07;;;11.10;;
966;SDS011;56108;48.730;9.304;2022-12-26T10:22:19;9.40;;;8.55;;
966;SDS011;56108;48.730;9.304;2022-12-26T10:24:44;9.75;;;8.00;;
966;SDS011;56108;48.730;9.304;2022-12-26T10:26:56;9.75;;;8.60;;
966;SDS011;56108;48.730;9.304;2022-12-26T10:29:10;8.60;;;7.80;;
966;SDS011;56108;48.730;9.304;2022-12-26T10:31:24;8.88;;;8.02;;
966;SDS011;56108;48.730;9.304;2022-12-26T10:33:39;7.95;;;6.97;;
966;SDS011;56108;48.730;9.304;2022-12-26T10:35:52;8.30;;;7.50;;
966;SDS011;56108;48.730;9.304;2022-12-26T10:38:04;9.50;;;8.07;;
966;SDS011;56108;48.730;9.304;2022-12-26T10:40:35;9.23;;;8.32;;
966;SDS011;56108;48.730;9.304;2022-12-26T10:42:51;7.50;;;6.75;;
966;SDS011;56108;48.730;9.304;2022-12-26T10:45:00;8.20;;;7.50;;
966;SDS011;56108;48.730;9.304;2022-12-26T10:47:12;7.57;;;6.82;;
966;SDS011;56108;48.730;9.304;2022-12-26T10:49:28;8.18;;;7.38;;
966;SDS011;56108;48.730;9.304;2022-12-26T10:51:37;9.20;;;8.40;;
966;SDS011;56108;48.730;9.304;2022-12-26T10:53:48;9.90;;;9.00;;
966;SDS011;56108;48.730;9.304;2022-12-26T10:55:59;10.77;;;9.07;;
966;SDS011;56108;48.730;9.304;2022-12-26T10:58:12;8.90;;;8.00;;
966;SDS011;56108;48.730;9.304;2022-12-26T11:00:23;7.40;;;6.60;;
966;SDS011;56108;48.730;9.304;2022-12-26T11:02:33;6.18;;;5.53;;
966;SDS011;56108;48.730;9.304;2022-12-26T11:04:55;7.78;;;7.00;;
966;SDS011;56108;48.730;9.304;2022-12-26T11:07:25;8.73;;;7.53;;
966;SDS011;56108;48.730;9.304;2022-12-26T11:09:41;7.55;;;6.95;;
966;SDS011;56108;48.730;9.304;2022-12-26T11:11:54;7.00;;;6.50;;
966;SDS011;56108;48.730;9.304;2022-12-26T11:14:04;7.20;;;6.55;;
966;SDS011;56108;48.730;9.304;2022-12-26T11:16:12;6.47;;;5.85;;
966;SDS011;56108;48.730;9.304;2022-12-26T11:18:34;6.10;;;5.53;;
966;SDS011;56108;48.730;9.304;2022-12-26T11:20:45;5.65;;;5.15;;
966;SDS011;56108;48.730;9.304;2022-12-26T11:22:54;6.30;;;5.75;;
966;SDS011;56108;48.730;9.304;2022-12-26T11:25:27;8.55;;;6.93;;
966;SDS011;56108;48.730;9.304;2022-12-26T11:27:55;8.30;;;6.90;;
966;SDS011;56108;48.730;9.304;2022-12-26T11:30:15;8.50;;;7.70;;
966;SDS011;56108;48.730;9.304;2022-12-26T11:32:25;8.63;;;7.63;;
966;SDS011;56108;48.730;9.304;2022-12-26T11:34:34;7.85;;;7.15;;
966;SDS011;56108;48.730;9.304;2022-12-26T11:36:49;7.75;;;6.97;;
966;SDS011;56108;48.730;9.304;2022-12-26T11:38:59;7.13;;;6.53;;
966;SDS011;56108;48.730;9.304;2022-12-26T11:41:15;8.25;;;7.22;;
966;SDS011;56108;48.730;9.304;2022-12-26T11:43:40;7.68;;;6.90;;
966;SDS011;56108;48.730;9.304;2022-12-26T11:45:48;7.80;;;7.00;;
966;SDS011;56108;48.730;9.304;2022-12-26T11:47:57;7.75;;;7.05;;
966;SDS011;56108;48.730;9.304;2022-12-26T11:50:09;8.27;;;7.47;;
966;SDS011;56108;48.730;9.304;2022-12-26T11:52:35;6.95;;;5.93;;
966;SDS011;56108;48.730;9.304;2022-12-26T11:54:46;7.47;;;5.90;;
966;SDS011;56108;48.730;9.304;2022-12-26T11:59:28;6.80;;;6.20;;
966;SDS011;56108;48.730;9.304;2022-12-26T12:01:39;7.80;;;5.85;;
966;SDS011;56108;48.730;9.304;2022-12-26T12:03:48;5.72;;;5.22;;
966;SDS011;56108;48.730;9.304;2022-12-26T12:05:59;5.88;;;5.03;;
966;SDS011;56108;48.730;9.304;2022-12-26T12:08:26;5.18;;;4.78;;
966;SDS011;56108;48.730;9.304;2022-12-26T12:10:48;4.45;;;4.05;;
966;SDS011;56108;48.730;9.304;2022-12-26T12:13:09;4.45;;;4.05;;
966;SDS011;56108;48.730;9.304;2022-12-26T12:15:27;6.63;;;3.88;;
966;SDS011;56108;48.730;9.304;2022-12-26T12:17:38;4.07;;;3.78;;
966;SDS011;56108;48.730;9.304;2022-12-26T12:19:59;4.07;;;3.72;;
966;SDS011;56108;48.730;9.304;2022-12-26T12:27:30;5.07;;;4.68;;
966;SDS011;56108;48.730;9.304;2022-12-26T12:29:47;4.70;;;4.30;;
966;SDS011;56108;48.730;9.304;2022-12-26T12:32:12;5.13;;;4.57;;
966;SDS011;56108;48.730;9.304;2022-12-26T12:34:30;8.13;;;4.95;;
966;SDS011;56108;48.730;9.304;2022-12-26T12:36:51;4.88;;;4.47;;
966;SDS011;56108;48.730;9.304;2022-12-26T12:39:10;6.55;;;5.95;;
966;SDS011;56108;48.730;9.304;2022-12-26T12:41:30;6.10;;;5.60;;
966;SDS011;56108;48.730;9.304;2022-12-26T12:44:04;4.63;;;4.32;;
966;SDS011;56108;48.730;9.304;2022-12-26T12:46:27;5.65;;;5.20;;
966;SDS011;56108;48.730;9.304;2022-12-26T12:48:50;5.22;;;4.72;;
966;SDS011;56108;48.730;9.304;2022-12-26T12:51:10;4.70;;;4.30;;
966;SDS011;56108;48.730;9.304;2022-12-26T12:53:30;4.70;;;4.35;;
966;SDS011;56108;48.730;9.304;2022-12-26T12:55:56;6.00;;;3.60;;
966;SDS011;56108;48.730;9.304;2022-12-26T12:58:14;3.35;;;3.00;;
966;SDS011;56108;48.730;9.304;2022-12-26T13:00:32;2.67;;;2.50;;
966;SDS011;56108;48.730;9.304;2022-12-26T13:02:50;2.17;;;2.05;;
966;SDS011;56108;48.730;9.304;2022-12-26T13:05:10;2.65;;;2.00;;
966;SDS011;56108;48.730;9.304;2022-12-26T13:07:27;2.35;;;2.25;;
966;SDS011;56108;48.730;9.304;2022-12-26T13:09:49;3.38;;;2.20;;
966;SDS011;56108;48.730;9.304;2022-12-26T13:11:59;1.95;;;1.85;;
966;SDS011;56108;48.730;9.304;2022-12-26T13:14:11;1.80;;;1.70;;
966;SDS011;56108;48.730;9.304;2022-12-26T13:16:24;1.50;;;1.40;;
966;SDS011;56108;48.730;9.304;2022-12-26T13:18:39;1.40;;;1.35;;
966;SDS011;56108;48.730;9.304;2022-12-26T13:20:55;1.52;;;1.42;;
966;SDS011;56108;48.730;9.304;2022-12-26T13:23:08;1.80;;;1.70;;
966;SDS011;56108;48.730;9.304;2022-12-26T13:25:36;2.25;;;1.45;;
966;SDS011;56108;48.730;9.304;2022-12-26T13:27:51;1.75;;;1.65;;
966;SDS011;56108;48.730;9.304;2022-12-26T13:30:14;1.40;;;1.30;;
966;SDS011;56108;48.730;9.304;2022-12-26T13:32:26;1.80;;;1.70;;
966;SDS011;56108;48.730;9.304;2022-12-26T13:34:38;1.70;;;1.60;;
966;SDS011;56108;48.730;9.304;2022-12-26T13:36:49;1.20;;;1.20;;
966;SDS011;56108;48.730;9.304;2022-12-26T13:41:36;1.75;;;1.65;;
966;SDS011;56108;48.730;9.304;2022-12-26T13:43:59;1.90;;;1.80;;
966;SDS011;56108;48.730;9.304;2022-12-26T13:51:43;2.65;;;2.00;;
966;SDS011;56108;48.730;9.304;2022-12-26T13:53:55;1.80;;;1.70;;
966;SDS011;56108;48.730;9.304;2022-12-26T13:56:09;2.00;;;1.90;;
966;SDS011;56108;48.730;9.304;2022-12-26T13:58:49;1.58;;;1.48;;
966;SDS011;56108;48.730;9.304;2022-12-26T14:01:04;1.50;;;1.40;;
966;SDS011;56108;48.730;9.304;2022-12-26T14:03:26;1.75;;;1.70;;
966;SDS011;56108;48.730;9.304;2022-12-26T14:05:46;2.13;;;2.03;;
966;SDS011;56108;48.730;9.304;2022-12-26T14:08:19;2.03;;;1.92;;
966;SDS011;56108;48.730;9.304;2022-12-26T14:10:38;3.25;;;2.08;;
966;SDS011;56108;48.730;9.304;2022-12-26T14:12:57;2.17;;;2.08;;
966;SDS011;56108;48.730;9.304;2022-12-26T14:15:15;1.70;;;1.60;;
966;SDS011;56108;48.730;9.304;2022-12-26T14:17:33;2.00;;;1.90;;